Weather observations for the past three days for
Bay St. Louis, Stennis International Airport
Metric (Imperial)
Date Time (cdt) Wind (kph) Vis. (km) Weather Sky Cond. Temperature (ºC) Relative Humidity Wind Chill (°C) Heat Index (°C) Pressure Precipitation (cm)
Air Dwpt 6 hour altimeter (cm) sea level (mb) 1 hr 3 hr 6 hr
Max. Min.
04 19:50 Calm 16.09 Fair CLR 23 12 50% 76.1 0.0
04 18:50 SE 15 16.09 Fair CLR 23 12 50% 76.1 0.0
04 17:50 S 15 16.09 Fair CLR 24 10 41% 25 76.12 0.0
04 16:50 S 17 16.09 Fair CLR 24 10 41% 25 76.12 0.0
04 15:50 S 13 16.09 Fair CLR 24 9 39% 25 76.15 0.0
04 14:50 SW 19 16.09 Fair CLR 25 9 36% 26 76.25 0.0
04 13:50 S 19 16.09 Fair CLR 25 9 36% 26 76.28 0.0
04 12:50 S 13 G 26 16.09 Fair CLR 24 8 36% 25 76.3 0.0
04 11:50 S 9 16.09 Fair CLR 25 9 36% 26 76.33 0.0
04 10:50 SE 7 16.09 A Few Clouds FEW060 23 10 44% 76.35 0.0
04 09:50 Calm 16.09 Fair CLR 22 12 53% 76.38 0.0
04 08:47 Calm 16.09 Fair CLR 19 13 68% 76.4 0.0
04 07:47 Calm 16.09 Fair CLR 14 12 88% 76.38 0.0
04 06:47 Calm 16.09 Fair CLR 9 9 100% 76.35 0.0
03 19:50 S 7 16.09 Fair CLR 15 13 88% 76.38 0.0
03 18:50 S 9 16.09 Fair CLR 22 9 44% 76.35 0.0
03 16:50 S 13 16.09 Fair CLR 23 8 38% 76.35 0.0
03 15:50 N 9 16.09 Fair CLR 25 4 26% 25 76.45 0.0
03 14:47 E 11 16.09 Fair CLR 24 5 29% 25 76.5 0.0
03 12:47 E 15 16.09 Fair CLR 23 5 31% 76.63 0.0
03 11:47 E 13 G 22 16.09 Fair CLR 23 4 29% 76.71 0.0
03 10:47 E 15 16.09 Fair CLR 22 5 33% 76.71 0.0
03 09:47 Calm 16.09 Fair CLR 20 8 46% 76.71 0.0
03 08:47 Calm 16.09 Fair CLR 17 10 64% 76.68 0.0
03 07:47 Calm 16.09 Fair CLR 13 8 72% 76.63 0.0
03 06:47 Calm 16.09 Fair CLR 9 8 94% 76.58 0.0
02 19:50 W 7 16.09 Fair CLR 16 8 59% 76.28 0.0
02 18:47 N 13 16.09 Fair CLR 21 6 38% 76.2 0.0
02 17:47 N 26 G 37 16.09 Fair CLR 22 5 33% 76.15 0.0
02 16:47 N 30 G 39 16.09 Fair CLR 23 6 33% 76.12 0.0
02 15:47 N 30 G 39 16.09 Fair CLR 23 6 33% 76.12 0.0
02 14:47 N 30 G 39 16.09 Fair CLR 23 8 38% 76.15 0.0
02 13:47 N 26 G 41 16.09 Partly Cloudy SCT035 22 11 50% 76.15 0.0
02 12:47 N 26 G 41 16.09 Partly Cloudy SCT035 21 11 53% 76.2 0.0
02 11:47 N 30 16.09 A Few Clouds FEW020 16 13 83% 76.23 0.0
02 10:47 N 30 16.09 A Few Clouds FEW020 16 13 83% 76.23 0.0
02 09:47 N 19 G 33 16.09 A Few Clouds FEW014 16 13 83% 76.17 0.0
02 08:47 N 15 G 30 16.09 Mostly Cloudy BKN040 13 11 88% 76.15 0.0
02 07:47 N 15 G 30 16.09 Mostly Cloudy BKN035 13 11 88% 76.12 0.0
02 06:47 N 15 G 30 16.09 Mostly Cloudy BKN030 12 11 94% 76.07 0.0
Date Time (cdt) Wind (kph) Vis. (km) Weather Sky Cond. Air Dwpt Max. Min. Relative Humidity Wind Chill (°C) Heat Index (°C) altimeter (cm) sea level (mb) 1 hr 3 hr 6 hr
6 hour
Temperature (ºC) Pressure Precipitation (cm)